sensor_id;sensor_type;location;lat;lon;timestamp;pressure;altitude;pressure_sealevel;temperature;humidity
59608;BME280;45426;44.726;10.390;2023-02-21T00:01:53;101353.84;;;6.56;100.00
59608;BME280;45426;44.726;10.390;2023-02-21T00:04:37;101346.38;;;7.06;100.00
59608;BME280;45426;44.726;10.390;2023-02-21T00:07:22;101339.50;;;7.19;100.00
59608;BME280;45426;44.726;10.390;2023-02-21T00:10:07;101352.06;;;7.05;100.00
59608;BME280;45426;44.726;10.390;2023-02-21T00:12:51;101350.78;;;7.26;100.00
59608;BME280;45426;44.726;10.390;2023-02-21T00:15:35;101348.41;;;7.19;100.00
59608;BME280;45426;44.726;10.390;2023-02-21T00:18:19;101349.47;;;7.67;100.00
59608;BME280;45426;44.726;10.390;2023-02-21T00:21:03;101344.78;;;7.05;100.00
59608;BME280;45426;44.726;10.390;2023-02-21T00:23:47;101349.59;;;7.08;100.00
59608;BME280;45426;44.726;10.390;2023-02-21T00:26:31;101341.50;;;6.50;100.00
59608;BME280;45426;44.726;10.390;2023-02-21T00:29:15;101341.84;;;6.72;100.00
59608;BME280;45426;44.726;10.390;2023-02-21T00:32:00;101337.91;;;6.89;100.00
59608;BME280;45426;44.726;10.390;2023-02-21T00:34:44;101329.56;;;6.85;100.00
59608;BME280;45426;44.726;10.390;2023-02-21T00:37:28;101331.91;;;7.21;100.00
59608;BME280;45426;44.726;10.390;2023-02-21T00:40:13;101323.63;;;7.36;100.00
59608;BME280;45426;44.726;10.390;2023-02-21T00:42:57;101314.94;;;7.39;100.00
59608;BME280;45426;44.726;10.390;2023-02-21T00:45:41;101322.69;;;7.46;100.00
59608;BME280;45426;44.726;10.390;2023-02-21T00:48:26;101320.03;;;7.22;100.00
59608;BME280;45426;44.726;10.390;2023-02-21T00:51:09;101323.47;;;6.74;100.00
59608;BME280;45426;44.726;10.390;2023-02-21T00:53:53;101321.78;;;6.78;100.00
59608;BME280;45426;44.726;10.390;2023-02-21T00:56:38;101319.25;;;6.92;100.00
59608;BME280;45426;44.726;10.390;2023-02-21T00:59:22;101326.56;;;6.57;100.00
59608;BME280;45426;44.726;10.390;2023-02-21T01:02:06;101319.19;;;6.34;100.00
59608;BME280;45426;44.726;10.390;2023-02-21T01:04:50;101323.38;;;6.16;100.00
59608;BME280;45426;44.726;10.390;2023-02-21T01:07:34;101311.78;;;6.50;100.00
59608;BME280;45426;44.726;10.390;2023-02-21T01:10:18;101320.56;;;6.31;100.00
59608;BME280;45426;44.726;10.390;2023-02-21T01:13:03;101318.13;;;5.95;100.00
59608;BME280;45426;44.726;10.390;2023-02-21T01:15:46;101321.72;;;5.70;100.00
59608;BME280;45426;44.726;10.390;2023-02-21T01:18:31;101318.81;;;5.61;100.00
59608;BME280;45426;44.726;10.390;2023-02-21T01:21:16;101314.16;;;5.72;100.00
59608;BME280;45426;44.726;10.390;2023-02-21T01:24:02;101308.56;;;5.58;100.00
59608;BME280;45426;44.726;10.390;2023-02-21T01:26:46;101302.06;;;5.64;100.00
59608;BME280;45426;44.726;10.390;2023-02-21T01:29:30;101299.25;;;5.85;100.00
59608;BME280;45426;44.726;10.390;2023-02-21T01:32:14;101286.69;;;6.15;100.00
59608;BME280;45426;44.726;10.390;2023-02-21T01:34:58;101296.78;;;5.94;100.00
59608;BME280;45426;44.726;10.390;2023-02-21T01:37:42;101293.19;;;6.14;100.00
59608;BME280;45426;44.726;10.390;2023-02-21T01:40:26;101299.41;;;5.59;100.00
59608;BME280;45426;44.726;10.390;2023-02-21T01:43:21;101298.31;;;5.55;100.00
59608;BME280;45426;44.726;10.390;2023-02-21T01:46:10;101301.31;;;5.54;100.00
59608;BME280;45426;44.726;10.390;2023-02-21T01:48:55;101291.50;;;5.78;100.00
59608;BME280;45426;44.726;10.390;2023-02-21T01:51:41;101288.97;;;5.42;100.00
59608;BME280;45426;44.726;10.390;2023-02-21T01:54:30;101290.34;;;5.90;100.00
59608;BME280;45426;44.726;10.390;2023-02-21T01:57:15;101286.28;;;6.32;100.00
59608;BME280;45426;44.726;10.390;2023-02-21T02:00:04;101275.94;;;6.10;100.00
59608;BME280;45426;44.726;10.390;2023-02-21T02:05:38;101278.63;;;6.44;100.00
59608;BME280;45426;44.726;10.390;2023-02-21T02:08:27;101274.63;;;6.41;100.00
59608;BME280;45426;44.726;10.390;2023-02-21T02:20:10;101272.16;;;6.11;100.00
59608;BME280;45426;44.726;10.390;2023-02-21T02:25:39;101256.69;;;6.21;100.00
59608;BME280;45426;44.726;10.390;2023-02-21T02:28:31;101244.91;;;6.12;100.00
59608;BME280;45426;44.726;10.390;2023-02-21T02:39:47;101255.38;;;5.19;100.00
59608;BME280;45426;44.726;10.390;2023-02-21T02:44:52;101242.75;;;5.64;100.00
59608;BME280;45426;44.726;10.390;2023-02-21T02:47:24;101242.94;;;5.29;100.00
59608;BME280;45426;44.726;10.390;2023-02-21T02:49:53;101248.72;;;5.01;100.00
59608;BME280;45426;44.726;10.390;2023-02-21T02:52:20;101250.66;;;4.75;100.00
59608;BME280;45426;44.726;10.390;2023-02-21T02:55:20;101250.09;;;4.78;100.00
59608;BME280;45426;44.726;10.390;2023-02-21T02:57:41;101250.34;;;4.87;100.00
59608;BME280;45426;44.726;10.390;2023-02-21T03:00:13;101246.66;;;4.62;100.00
59608;BME280;45426;44.726;10.390;2023-02-21T03:02:48;101253.69;;;4.38;100.00
59608;BME280;45426;44.726;10.390;2023-02-21T03:05:31;101246.94;;;4.30;100.00
59608;BME280;45426;44.726;10.390;2023-02-21T03:08:11;101246.66;;;4.62;100.00
59608;BME280;45426;44.726;10.390;2023-02-21T03:10:57;101243.16;;;4.52;100.00
59608;BME280;45426;44.726;10.390;2023-02-21T03:16:06;101248.56;;;4.21;100.00
59608;BME280;45426;44.726;10.390;2023-02-21T03:21:15;101247.72;;;4.36;100.00
59608;BME280;45426;44.726;10.390;2023-02-21T03:23:43;101241.53;;;4.51;100.00
59608;BME280;45426;44.726;10.390;2023-02-21T03:26:11;101233.47;;;4.51;100.00
59608;BME280;45426;44.726;10.390;2023-02-21T03:28:39;101235.56;;;4.84;100.00
59608;BME280;45426;44.726;10.390;2023-02-21T03:31:06;101239.66;;;4.51;100.00
59608;BME280;45426;44.726;10.390;2023-02-21T03:33:33;101233.47;;;4.61;100.00
59608;BME280;45426;44.726;10.390;2023-02-21T03:36:00;101239.19;;;5.30;100.00
59608;BME280;45426;44.726;10.390;2023-02-21T03:38:29;101230.25;;;4.43;100.00
59608;BME280;45426;44.726;10.390;2023-02-21T03:40:54;101227.03;;;3.80;100.00
59608;BME280;45426;44.726;10.390;2023-02-21T03:43:20;101247.97;;;3.67;100.00
59608;BME280;45426;44.726;10.390;2023-02-21T03:45:46;101235.38;;;4.09;100.00
59608;BME280;45426;44.726;10.390;2023-02-21T03:48:11;101224.88;;;4.38;100.00
59608;BME280;45426;44.726;10.390;2023-02-21T03:50:36;101233.69;;;3.62;100.00
59608;BME280;45426;44.726;10.390;2023-02-21T03:53:02;101234.97;;;3.34;100.00
59608;BME280;45426;44.726;10.390;2023-02-21T03:55:28;101239.06;;;3.57;100.00
59608;BME280;45426;44.726;10.390;2023-02-21T03:57:53;101245.28;;;3.73;100.00
59608;BME280;45426;44.726;10.390;2023-02-21T04:00:19;101237.75;;;3.69;100.00
59608;BME280;45426;44.726;10.390;2023-02-21T04:02:44;101240.41;;;3.64;100.00
59608;BME280;45426;44.726;10.390;2023-02-21T04:05:09;101244.69;;;3.55;100.00
59608;BME280;45426;44.726;10.390;2023-02-21T04:07:35;101251.66;;;3.51;100.00
59608;BME280;45426;44.726;10.390;2023-02-21T04:10:00;101246.34;;;3.72;100.00
59608;BME280;45426;44.726;10.390;2023-02-21T04:12:26;101244.69;;;3.55;100.00
59608;BME280;45426;44.726;10.390;2023-02-21T04:14:52;101243.03;;;3.34;100.00
59608;BME280;45426;44.726;10.390;2023-02-21T04:17:20;101245.94;;;3.27;100.00
59608;BME280;45426;44.726;10.390;2023-02-21T04:19:46;101252.38;;;3.21;100.00
59608;BME280;45426;44.726;10.390;2023-02-21T04:22:11;101243.09;;;3.59;100.00
59608;BME280;45426;44.726;10.390;2023-02-21T04:24:37;101240.44;;;3.85;100.00
59608;BME280;45426;44.726;10.390;2023-02-21T04:27:02;101238.31;;;4.13;100.00
59608;BME280;45426;44.726;10.390;2023-02-21T04:29:28;101233.50;;;4.15;100.00
59608;BME280;45426;44.726;10.390;2023-02-21T04:31:53;101228.63;;;3.81;100.00
59608;BME280;45426;44.726;10.390;2023-02-21T04:34:20;101236.16;;;3.68;100.00
59608;BME280;45426;44.726;10.390;2023-02-21T04:36:45;101237.78;;;3.80;100.00
59608;BME280;45426;44.726;10.390;2023-02-21T04:39:11;101230.19;;;3.56;100.00
59608;BME280;45426;44.726;10.390;2023-02-21T04:41:37;101245.53;;;3.71;100.00
59608;BME280;45426;44.726;10.390;2023-02-21T04:44:03;101244.69;;;3.45;100.00
59608;BME280;45426;44.726;10.390;2023-02-21T04:46:28;101237.97;;;3.42;100.00
59608;BME280;45426;44.726;10.390;2023-02-21T04:48:54;101236.91;;;3.59;100.00
59608;BME280;45426;44.726;10.390;2023-02-21T04:51:22;101239.59;;;3.54;100.00
59608;BME280;45426;44.726;10.390;2023-02-21T04:53:49;101237.94;;;3.47;100.00
59608;BME280;45426;44.726;10.390;2023-02-21T04:56:18;101232.88;;;3.56;100.00
59608;BME280;45426;44.726;10.390;2023-02-21T04:58:45;101231.84;;;3.73;100.00
59608;BME280;45426;44.726;10.390;2023-02-21T05:01:10;101224.84;;;3.61;100.00
59608;BME280;45426;44.726;10.390;2023-02-21T05:03:37;101223.53;;;4.05;100.00
59608;BME280;45426;44.726;10.390;2023-02-21T05:06:02;101225.88;;;3.55;100.00
59608;BME280;45426;44.726;10.390;2023-02-21T05:08:27;101220.72;;;3.38;100.00
59608;BME280;45426;44.726;10.390;2023-02-21T05:10:53;101217.19;;;3.22;100.00
59608;BME280;45426;44.726;10.390;2023-02-21T05:13:19;101222.53;;;3.17;100.00
59608;BME280;45426;44.726;10.390;2023-02-21T05:15:45;101218.25;;;3.21;100.00
59608;BME280;45426;44.726;10.390;2023-02-21T05:18:10;101214.97;;;3.04;100.00
59608;BME280;45426;44.726;10.390;2023-02-21T05:20:36;101206.66;;;3.05;100.00
59608;BME280;45426;44.726;10.390;2023-02-21T05:23:01;101224.34;;;2.96;100.00
59608;BME280;45426;44.726;10.390;2023-02-21T05:25:27;101211.69;;;2.91;100.00
59608;BME280;45426;44.726;10.390;2023-02-21T05:27:52;101207.00;;;3.24;100.00
59608;BME280;45426;44.726;10.390;2023-02-21T05:30:19;101206.03;;;2.88;100.00
59608;BME280;45426;44.726;10.390;2023-02-21T05:32:46;101205.09;;;3.15;100.00
59608;BME280;45426;44.726;10.390;2023-02-21T05:35:14;101201.53;;;2.99;100.00
59608;BME280;45426;44.726;10.390;2023-02-21T05:37:39;101199.78;;;3.35;100.00
59608;BME280;45426;44.726;10.390;2023-02-21T05:40:05;101201.38;;;3.36;100.00
59608;BME280;45426;44.726;10.390;2023-02-21T05:42:31;101193.41;;;3.62;100.00
59608;BME280;45426;44.726;10.390;2023-02-21T05:44:57;101202.44;;;3.25;100.00
59608;BME280;45426;44.726;10.390;2023-02-21T05:47:22;101190.91;;;3.29;100.00
59608;BME280;45426;44.726;10.390;2023-02-21T05:49:48;101197.81;;;3.10;100.00
59608;BME280;45426;44.726;10.390;2023-02-21T05:52:15;101199.44;;;3.11;100.00
59608;BME280;45426;44.726;10.390;2023-02-21T05:54:41;101203.47;;;3.14;100.00
59608;BME280;45426;44.726;10.390;2023-02-21T05:57:07;101196.84;;;3.37;100.00
59608;BME280;45426;44.726;10.390;2023-02-21T05:59:32;101198.88;;;3.04;100.00
59608;BME280;45426;44.726;10.390;2023-02-21T06:01:58;101192.56;;;3.41;100.00
59608;BME280;45426;44.726;10.390;2023-02-21T06:04:23;101197.59;;;3.22;100.00
59608;BME280;45426;44.726;10.390;2023-02-21T06:06:49;101199.38;;;3.01;100.00
59608;BME280;45426;44.726;10.390;2023-02-21T06:09:14;101196.56;;;3.33;100.00
59608;BME280;45426;44.726;10.390;2023-02-21T06:11:40;101193.94;;;3.54;100.00
59608;BME280;45426;44.726;10.390;2023-02-21T06:14:12;101189.91;;;3.77;100.00
59608;BME280;45426;44.726;10.390;2023-02-21T06:16:38;101195.28;;;4.07;100.00
59608;BME280;45426;44.726;10.390;2023-02-21T06:19:05;101185.34;;;4.13;100.00
59608;BME280;45426;44.726;10.390;2023-02-21T06:21:31;101194.22;;;4.34;100.00
59608;BME280;45426;44.726;10.390;2023-02-21T06:23:57;101193.41;;;4.23;100.00
59608;BME280;45426;44.726;10.390;2023-02-21T06:26:23;101193.13;;;4.30;100.00
59608;BME280;45426;44.726;10.390;2023-02-21T06:28:48;101192.59;;;4.28;100.00
59608;BME280;45426;44.726;10.390;2023-02-21T06:31:15;101196.91;;;4.34;100.00
59608;BME280;45426;44.726;10.390;2023-02-21T06:33:41;101198.50;;;4.40;100.00
59608;BME280;45426;44.726;10.390;2023-02-21T06:36:11;101200.84;;;4.73;100.00
59608;BME280;45426;44.726;10.390;2023-02-21T06:38:36;101202.00;;;4.41;100.00
59608;BME280;45426;44.726;10.390;2023-02-21T06:41:06;101213.47;;;4.82;100.00
59608;BME280;45426;44.726;10.390;2023-02-21T06:43:32;101205.81;;;5.15;100.00
59608;BME280;45426;44.726;10.390;2023-02-21T06:45:58;101215.66;;;5.40;100.00
59608;BME280;45426;44.726;10.390;2023-02-21T06:48:23;101210.41;;;5.64;100.00
59608;BME280;45426;44.726;10.390;2023-02-21T06:50:49;101209.03;;;6.12;100.00
59608;BME280;45426;44.726;10.390;2023-02-21T06:53:14;101203.66;;;6.65;100.00
59608;BME280;45426;44.726;10.390;2023-02-21T06:55:40;101205.78;;;7.16;100.00
59608;BME280;45426;44.726;10.390;2023-02-21T06:58:05;101195.03;;;7.49;100.00
59608;BME280;45426;44.726;10.390;2023-02-21T07:00:31;101204.13;;;6.96;100.00
59608;BME280;45426;44.726;10.390;2023-02-21T07:02:56;101205.03;;;6.87;100.00
59608;BME280;45426;44.726;10.390;2023-02-21T07:05:22;101205.19;;;7.38;100.00
59608;BME280;45426;44.726;10.390;2023-02-21T07:07:47;101201.91;;;7.61;100.00
59608;BME280;45426;44.726;10.390;2023-02-21T07:10:12;101203.97;;;7.69;100.00
59608;BME280;45426;44.726;10.390;2023-02-21T07:12:38;101201.06;;;7.98;100.00
59608;BME280;45426;44.726;10.390;2023-02-21T07:15:05;101214.88;;;6.48;100.00
59608;BME280;45426;44.726;10.390;2023-02-21T07:17:31;101220.66;;;5.62;100.00
59608;BME280;45426;44.726;10.390;2023-02-21T07:19:56;101223.81;;;5.75;100.00
59608;BME280;45426;44.726;10.390;2023-02-21T07:22:22;101228.19;;;6.10;100.00
59608;BME280;45426;44.726;10.390;2023-02-21T07:24:54;101226.31;;;6.06;100.00
59608;BME280;45426;44.726;10.390;2023-02-21T07:27:20;101222.34;;;6.86;100.00
59608;BME280;45426;44.726;10.390;2023-02-21T07:29:47;101224.09;;;7.19;100.00
59608;BME280;45426;44.726;10.390;2023-02-21T07:32:14;101216.63;;;7.54;100.00
59608;BME280;45426;44.726;10.390;2023-02-21T07:34:39;101219.16;;;7.46;100.00
59608;BME280;45426;44.726;10.390;2023-02-21T07:37:05;101224.63;;;7.41;100.00
59608;BME280;45426;44.726;10.390;2023-02-21T07:39:30;101223.25;;;7.43;100.00
59608;BME280;45426;44.726;10.390;2023-02-21T07:41:56;101217.81;;;8.33;100.00
59608;BME280;45426;44.726;10.390;2023-02-21T07:44:21;101214.38;;;8.46;100.00
59608;BME280;45426;44.726;10.390;2023-02-21T07:46:46;101219.81;;;8.88;100.00
59608;BME280;45426;44.726;10.390;2023-02-21T07:49:12;101221.50;;;9.39;100.00
59608;BME280;45426;44.726;10.390;2023-02-21T07:51:37;101217.91;;;10.65;100.00
59608;BME280;45426;44.726;10.390;2023-02-21T07:54:03;101221.44;;;9.89;100.00
59608;BME280;45426;44.726;10.390;2023-02-21T07:56:29;101223.03;;;8.90;100.00
59608;BME280;45426;44.726;10.390;2023-02-21T07:58:54;101227.97;;;8.41;100.00
59608;BME280;45426;44.726;10.390;2023-02-21T08:01:22;101227.13;;;8.60;100.00
59608;BME280;45426;44.726;10.390;2023-02-21T08:03:48;101233.88;;;8.62;100.00
59608;BME280;45426;44.726;10.390;2023-02-21T08:06:13;101227.97;;;9.02;100.00
59608;BME280;45426;44.726;10.390;2023-02-21T08:08:39;101226.25;;;9.06;100.00
59608;BME280;45426;44.726;10.390;2023-02-21T08:11:04;101227.19;;;9.51;100.00
59608;BME280;45426;44.726;10.390;2023-02-21T08:13:30;101228.81;;;9.75;100.00
59608;BME280;45426;44.726;10.390;2023-02-21T08:15:56;101230.50;;;9.48;100.00
59608;BME280;45426;44.726;10.390;2023-02-21T08:18:22;101226.28;;;9.42;100.00
59608;BME280;45426;44.726;10.390;2023-02-21T08:20:55;101225.13;;;9.21;100.00
59608;BME280;45426;44.726;10.390;2023-02-21T08:23:22;101235.88;;;8.98;100.00
59608;BME280;45426;44.726;10.390;2023-02-21T08:25:47;101236.63;;;9.40;100.00
59608;BME280;45426;44.726;10.390;2023-02-21T08:28:14;101227.59;;;9.45;100.00
59608;BME280;45426;44.726;10.390;2023-02-21T08:30:39;101224.00;;;9.95;100.00
59608;BME280;45426;44.726;10.390;2023-02-21T08:33:05;101221.97;;;10.00;100.00
59608;BME280;45426;44.726;10.390;2023-02-21T08:35:30;101220.81;;;10.15;100.00
59608;BME280;45426;44.726;10.390;2023-02-21T08:37:56;101227.50;;;10.32;100.00
59608;BME280;45426;44.726;10.390;2023-02-21T08:40:30;101219.78;;;10.56;100.00
59608;BME280;45426;44.726;10.390;2023-02-21T08:42:58;101218.94;;;10.78;100.00
59608;BME280;45426;44.726;10.390;2023-02-21T08:45:25;101222.34;;;10.07;100.00
59608;BME280;45426;44.726;10.390;2023-02-21T08:47:51;101222.06;;;10.32;100.00
59608;BME280;45426;44.726;10.390;2023-02-21T08:50:18;101221.38;;;10.03;100.00
59608;BME280;45426;44.726;10.390;2023-02-21T08:52:45;101224.00;;;10.71;100.00
59608;BME280;45426;44.726;10.390;2023-02-21T08:55:11;101213.81;;;11.34;100.00
59608;BME280;45426;44.726;10.390;2023-02-21T08:57:37;101226.44;;;11.30;100.00
59608;BME280;45426;44.726;10.390;2023-02-21T09:00:03;101225.03;;;11.76;100.00
59608;BME280;45426;44.726;10.390;2023-02-21T09:02:36;101220.59;;;10.97;100.00
59608;BME280;45426;44.726;10.390;2023-02-21T09:05:14;101222.84;;;10.95;100.00
59608;BME280;45426;44.726;10.390;2023-02-21T09:07:41;101231.22;;;11.33;100.00
59608;BME280;45426;44.726;10.390;2023-02-21T09:10:07;101227.13;;;11.62;100.00
59608;BME280;45426;44.726;10.390;2023-02-21T09:12:35;101230.81;;;11.66;100.00
59608;BME280;45426;44.726;10.390;2023-02-21T09:15:01;101240.69;;;11.44;100.00
59608;BME280;45426;44.726;10.390;2023-02-21T09:17:27;101226.31;;;11.61;100.00
59608;BME280;45426;44.726;10.390;2023-02-21T09:19:52;101223.63;;;11.96;100.00
59608;BME280;45426;44.726;10.390;2023-02-21T09:22:17;101228.25;;;11.78;100.00
59608;BME280;45426;44.726;10.390;2023-02-21T09:24:43;101229.34;;;11.69;100.00
59608;BME280;45426;44.726;10.390;2023-02-21T09:27:08;101227.69;;;12.46;100.00
59608;BME280;45426;44.726;10.390;2023-02-21T09:29:35;101213.28;;;12.84;100.00
59608;BME280;45426;44.726;10.390;2023-02-21T09:32:02;101220.22;;;12.08;100.00
59608;BME280;45426;44.726;10.390;2023-02-21T09:34:29;101211.50;;;12.88;100.00
59608;BME280;45426;44.726;10.390;2023-02-21T09:36:55;101218.91;;;12.32;100.00
59608;BME280;45426;44.726;10.390;2023-02-21T09:39:22;101209.50;;;12.97;100.00
59608;BME280;45426;44.726;10.390;2023-02-21T09:41:48;101212.22;;;13.57;100.00
59608;BME280;45426;44.726;10.390;2023-02-21T09:44:18;101201.44;;;12.80;100.00
59608;BME280;45426;44.726;10.390;2023-02-21T09:46:51;101207.69;;;13.61;100.00
59608;BME280;45426;44.726;10.390;2023-02-21T09:51:53;101188.22;;;19.48;100.00
59608;BME280;45426;44.726;10.390;2023-02-21T09:54:35;101189.03;;;18.68;100.00
59608;BME280;45426;44.726;10.390;2023-02-21T09:57:04;101197.00;;;17.10;100.00
59608;BME280;45426;44.726;10.390;2023-02-21T09:59:30;101195.47;;;17.87;100.00
59608;BME280;45426;44.726;10.390;2023-02-21T10:02:15;101186.34;;;17.24;100.00
59608;BME280;45426;44.726;10.390;2023-02-21T10:05:47;101187.72;;;18.81;100.00
59608;BME280;45426;44.726;10.390;2023-02-21T10:08:07;101197.44;;;16.96;100.00
59608;BME280;45426;44.726;10.390;2023-02-21T10:10:46;101191.41;;;17.06;100.00
59608;BME280;45426;44.726;10.390;2023-02-21T10:16:09;101201.06;;;16.05;100.00
59608;BME280;45426;44.726;10.390;2023-02-21T10:18:45;101196.78;;;16.52;100.00
59608;BME280;45426;44.726;10.390;2023-02-21T10:21:33;101188.34;;;16.44;100.00
59608;BME280;45426;44.726;10.390;2023-02-21T10:24:01;101183.38;;;17.33;100.00
59608;BME280;45426;44.726;10.390;2023-02-21T10:26:34;101187.81;;;15.66;100.00
59608;BME280;45426;44.726;10.390;2023-02-21T10:29:03;101179.03;;;17.52;100.00
59608;BME280;45426;44.726;10.390;2023-02-21T10:31:36;101189.28;;;15.76;100.00
59608;BME280;45426;44.726;10.390;2023-02-21T10:34:06;101175.28;;;16.85;100.00
59608;BME280;45426;44.726;10.390;2023-02-21T10:36:33;101175.63;;;17.78;100.00
59608;BME280;45426;44.726;10.390;2023-02-21T10:39:05;101175.19;;;15.90;100.00
59608;BME280;45426;44.726;10.390;2023-02-21T10:41:38;101160.19;;;16.79;100.00
59608;BME280;45426;44.726;10.390;2023-02-21T10:44:18;101168.09;;;17.16;100.00
59608;BME280;45426;44.726;10.390;2023-02-21T10:47:00;101157.28;;;16.88;100.00
59608;BME280;45426;44.726;10.390;2023-02-21T10:49:38;101161.19;;;17.81;100.00
59608;BME280;45426;44.726;10.390;2023-02-21T10:52:16;101150.19;;;18.73;100.00
59608;BME280;45426;44.726;10.390;2023-02-21T10:55:00;101136.91;;;17.24;100.00
59608;BME280;45426;44.726;10.390;2023-02-21T10:57:27;101150.28;;;16.91;100.00
59608;BME280;45426;44.726;10.390;2023-02-21T10:59:54;101151.56;;;15.85;100.00
59608;BME280;45426;44.726;10.390;2023-02-21T11:02:40;101136.09;;;17.04;100.00
59608;BME280;45426;44.726;10.390;2023-02-21T11:05:15;101138.66;;;16.46;100.00
59608;BME280;45426;44.726;10.390;2023-02-21T11:10:42;101117.47;;;17.33;100.00
59608;BME280;45426;44.726;10.390;2023-02-21T11:13:21;101114.50;;;16.52;100.00
59608;BME280;45426;44.726;10.390;2023-02-21T11:15:47;101111.28;;;16.65;100.00
59608;BME280;45426;44.726;10.390;2023-02-21T11:18:23;101105.28;;;16.79;100.00
59608;BME280;45426;44.726;10.390;2023-02-21T11:20:49;101100.91;;;17.30;100.00
59608;BME280;45426;44.726;10.390;2023-02-21T11:23:33;101105.53;;;17.25;100.00
59608;BME280;45426;44.726;10.390;2023-02-21T11:26:09;101100.25;;;17.17;100.00
59608;BME280;45426;44.726;10.390;2023-02-21T11:28:41;101091.06;;;17.09;100.00
59608;BME280;45426;44.726;10.390;2023-02-21T11:31:17;101084.19;;;17.58;100.00
59608;BME280;45426;44.726;10.390;2023-02-21T11:34:00;101078.13;;;16.90;100.00
59608;BME280;45426;44.726;10.390;2023-02-21T11:36:37;101075.22;;;17.84;100.00
59608;BME280;45426;44.726;10.390;2023-02-21T11:43:57;101066.06;;;17.96;100.00
59608;BME280;45426;44.726;10.390;2023-02-21T11:46:44;101067.19;;;17.10;100.00
59608;BME280;45426;44.726;10.390;2023-02-21T11:54:04;101056.97;;;17.30;100.00
59608;BME280;45426;44.726;10.390;2023-02-21T12:02:27;101046.88;;;16.95;100.00
59608;BME280;45426;44.726;10.390;2023-02-21T12:10:41;101034.09;;;15.84;100.00
59608;BME280;45426;44.726;10.390;2023-02-21T12:13:17;101036.22;;;15.75;100.00
59608;BME280;45426;44.726;10.390;2023-02-21T12:16:10;101015.25;;;16.46;100.00
59608;BME280;45426;44.726;10.390;2023-02-21T12:26:59;101014.84;;;15.96;100.00
59608;BME280;45426;44.726;10.390;2023-02-21T12:38:41;100998.09;;;17.27;100.00
59608;BME280;45426;44.726;10.390;2023-02-21T12:41:26;100998.50;;;15.84;100.00
59608;BME280;45426;44.726;10.390;2023-02-21T12:46:27;100994.38;;;15.46;100.00
59608;BME280;45426;44.726;10.390;2023-02-21T12:51:52;100985.09;;;16.30;100.00
59608;BME280;45426;44.726;10.390;2023-02-21T12:54:33;100983.88;;;16.11;100.00
59608;BME280;45426;44.726;10.390;2023-02-21T12:57:15;100988.44;;;15.28;100.00
59608;BME280;45426;44.726;10.390;2023-02-21T12:59:57;100974.31;;;14.98;100.00
59608;BME280;45426;44.726;10.390;2023-02-21T13:05:20;100974.78;;;15.00;100.00
59608;BME280;45426;44.726;10.390;2023-02-21T13:08:01;100965.84;;;15.31;100.00
59608;BME280;45426;44.726;10.390;2023-02-21T13:10:35;100952.19;;;15.47;100.00
59608;BME280;45426;44.726;10.390;2023-02-21T13:13:16;100955.75;;;15.19;100.00
59608;BME280;45426;44.726;10.390;2023-02-21T13:15:43;100942.56;;;14.93;100.00
59608;BME280;45426;44.726;10.390;2023-02-21T13:18:22;100946.38;;;15.20;100.00
59608;BME280;45426;44.726;10.390;2023-02-21T13:20:56;100938.28;;;15.56;100.00
59608;BME280;45426;44.726;10.390;2023-02-21T13:29:20;100935.56;;;15.87;100.00
59608;BME280;45426;44.726;10.390;2023-02-21T13:32:01;100927.94;;;16.13;100.00
59608;BME280;45426;44.726;10.390;2023-02-21T13:34:30;100927.09;;;15.93;100.00
59608;BME280;45426;44.726;10.390;2023-02-21T13:37:02;100934.59;;;15.80;100.00
59608;BME280;45426;44.726;10.390;2023-02-21T13:39:31;100924.69;;;15.27;100.00
59608;BME280;45426;44.726;10.390;2023-02-21T13:42:30;100921.50;;;15.09;100.00
59608;BME280;45426;44.726;10.390;2023-02-21T13:45:24;100929.34;;;15.11;100.00
59608;BME280;45426;44.726;10.390;2023-02-21T13:55:37;100905.16;;;15.93;100.00
59608;BME280;45426;44.726;10.390;2023-02-21T14:03:28;100904.38;;;16.27;100.00
59608;BME280;45426;44.726;10.390;2023-02-21T14:11:14;100892.53;;;15.72;100.00
59608;BME280;45426;44.726;10.390;2023-02-21T14:13:45;100891.31;;;15.38;100.00
59608;BME280;45426;44.726;10.390;2023-02-21T14:21:05;100886.50;;;15.98;100.00
59608;BME280;45426;44.726;10.390;2023-02-21T14:23:55;100883.50;;;16.03;100.00
59608;BME280;45426;44.726;10.390;2023-02-21T14:26:42;100883.56;;;15.40;100.00
59608;BME280;45426;44.726;10.390;2023-02-21T14:32:34;100875.66;;;15.54;100.00
59608;BME280;45426;44.726;10.390;2023-02-21T14:40:20;100866.50;;;15.14;100.00
59608;BME280;45426;44.726;10.390;2023-02-21T14:42:56;100874.59;;;14.95;100.00
59608;BME280;45426;44.726;10.390;2023-02-21T15:05:00;100855.34;;;15.55;100.00
59608;BME280;45426;44.726;10.390;2023-02-21T15:07:33;100851.63;;;15.63;100.00
59608;BME280;45426;44.726;10.390;2023-02-21T15:10:13;100847.63;;;15.41;100.00
59608;BME280;45426;44.726;10.390;2023-02-21T15:12:45;100850.88;;;15.15;100.00
59608;BME280;45426;44.726;10.390;2023-02-21T15:15:17;100844.56;;;14.83;100.00
59608;BME280;45426;44.726;10.390;2023-02-21T15:17:54;100851.59;;;15.12;100.00
59608;BME280;45426;44.726;10.390;2023-02-21T15:20:20;100843.00;;;14.82;100.00
59608;BME280;45426;44.726;10.390;2023-02-21T15:22:58;100845.03;;;15.01;100.00
59608;BME280;45426;44.726;10.390;2023-02-21T15:25:24;100848.91;;;14.84;100.00